Time;durP1;ratioP1;P1;durP2;ratioP2;P2;SDS_P1;SDS_P2;PMS_P1;PMS_P2;Temp;Humidity;BMP_temperature;BMP_pressure;BME280_temperature;BME280_humidity;BME280_pressure;Samples;Min_cycle;Max_cycle;Signal;HPM_P1;HPM_P2
2022/03/27 00:02:47;;;;;;;;;;;7.40;85.00;;;6.08;53.15;96652.66;10448280;28;1866;-69
2022/03/27 00:07:50;;;;;;;;;;;7.30;85.40;;;5.99;54.67;96663.88;10450959;28;1814;-68
2022/03/27 00:12:54;;;;;;;;;;;7.20;86.10;;;5.87;54.72;96661.91;10442561;28;1966;-69
2022/03/27 00:17:58;;;;;;;;;;;;;;;5.79;55.88;96654.19;10433629;28;1972;-69
2022/03/27 00:23:01;;;;;;;;;;;7.00;87.40;;;5.62;55.86;96669.16;10424649;28;2072;-68
2022/03/27 00:28:04;;;;;;;;;;;6.90;87.50;;;5.92;53.10;96659.41;10448924;28;2041;-70
2022/03/27 00:33:08;;;;;;;;;;;7.00;86.60;;;5.63;54.15;96670.78;10451380;28;1977;-69
2022/03/27 00:38:12;;;;;;;;;;;6.90;86.50;;;5.50;55.42;96665.56;10450467;28;1996;-69
2022/03/27 00:43:15;;;;;;;;;;;6.80;87.20;;;5.48;56.02;96665.78;10451768;28;2042;-68
2022/03/27 00:48:18;;;;;;;;;;;6.70;87.70;;;5.33;56.49;96660.78;10445746;28;1905;-70
2022/03/27 00:53:22;;;;;;;;;;;6.60;87.80;;;5.31;56.30;96667.38;10445183;28;1995;-69
2022/03/27 00:58:26;;;;;;;;;;;6.50;88.30;;;5.14;56.95;96667.91;10442821;28;2112;-70
2022/03/27 01:03:31;;;;;;;;;;;6.60;88.60;;;5.04;57.65;96656.13;10447800;28;1896;-70
2022/03/27 01:13:56;;;;;;;;;;;6.20;89.20;;;4.88;58.35;96657.44;10463174;28;2002;-69
2022/03/27 01:18:59;;;;;;;;;;;6.10;89.90;;;4.89;58.65;96649.22;10444229;28;2041;-68
2022/03/27 01:24:03;;;;;;;;;;;6.10;90.00;;;4.80;59.44;96645.22;10444573;28;1971;-69
2022/03/27 01:29:06;;;;;;;;;;;6.00;90.70;;;4.80;59.65;96645.22;10440057;28;2015;-69
2022/03/27 01:34:10;;;;;;;;;;;6.00;90.70;;;4.77;60.62;96645.66;10439756;28;1979;-68
2022/03/27 01:39:13;;;;;;;;;;;6.00;91.60;;;4.74;60.18;96643.41;10450215;28;1986;-69
2022/03/27 01:44:16;;;;;;;;;;;6.00;91.50;;;4.68;61.32;96636.28;10441264;28;1934;-69
2022/03/27 01:49:20;;;;;;;;;;;5.90;92.00;;;4.61;61.33;96631.00;10447331;28;1932;-68
2022/03/27 01:54:23;;;;;;;;;;;5.90;92.60;;;4.57;61.72;96631.63;10451579;28;1915;-69
2022/03/27 01:59:27;;;;;;;;;;;5.80;92.50;;;4.54;61.86;96624.09;10447663;28;1998;-69
2022/03/27 02:04:30;;;;;;;;;;;5.80;92.40;;;4.57;61.63;96628.97;10460527;28;1903;-69
2022/03/27 02:09:34;;;;;;;;;;;5.80;92.40;;;4.48;62.55;96630.28;10452396;28;2045;-69
2022/03/27 02:14:37;;;;;;;;;;;5.70;92.90;;;4.38;63.27;96629.91;10453197;28;1876;-69
2022/03/27 02:19:41;;;;;;;;;;;5.70;93.60;;;4.31;64.10;96628.09;10445592;28;1981;-68
2022/03/27 02:24:44;;;;;;;;;;;5.60;94.00;;;4.36;64.18;96631.97;10444209;28;1792;-69
2022/03/27 02:29:47;;;;;;;;;;;5.60;94.20;;;4.26;64.28;96622.63;10438185;28;2035;-71
2022/03/27 02:34:51;;;;;;;;;;;5.60;94.60;;;4.19;65.49;96621.00;10451639;28;1841;-69
2022/03/27 02:39:54;;;;;;;;;;;5.50;95.00;;;4.16;65.26;96627.56;10440724;28;1907;-69
2022/03/27 02:44:57;;;;;;;;;;;5.40;95.30;;;4.22;64.89;96632.03;10449270;28;1823;-69
2022/03/27 02:50:01;;;;;;;;;;;5.50;95.50;;;4.26;66.03;96627.94;10442482;28;1861;-69
2022/03/27 02:55:05;;;;;;;;;;;5.50;95.80;;;4.18;65.92;96624.69;10455734;28;2049;-69
2022/03/27 03:00:08;;;;;;;;;;;5.50;95.70;;;4.11;66.06;96632.69;10568214;22;2357;-71
2022/03/27 03:05:12;;;;;;;;;;;5.40;95.90;;;4.03;67.30;96635.63;10565985;28;1869;-70
2022/03/27 03:10:16;;;;;;;;;;;5.30;96.60;;;3.99;68.10;96637.06;10546143;28;1835;-70
2022/03/27 03:15:20;;;;;;;;;;;5.30;97.10;;;4.03;67.50;96639.09;10522755;28;1878;-70
2022/03/27 03:20:24;;;;;;;;;;;5.30;97.30;;;4.01;67.80;96640.34;10520969;28;1983;-71
2022/03/27 03:25:27;;;;;;;;;;;5.50;97.40;;;3.91;67.63;96629.31;10520942;28;2019;-71
2022/03/27 03:30:30;;;;;;;;;;;5.40;97.50;;;3.88;68.70;96630.56;10512545;28;1843;-70
2022/03/27 03:35:34;;;;;;;;;;;5.60;99.90;;;3.80;70.35;96631.59;10521407;28;1973;-71
2022/03/27 03:40:45;;;;;;;;;;;;;;;3.70;69.97;96633.88;10513660;28;1906;-71
2022/03/27 03:45:48;;;;;;;;;;;5.00;98.90;;;3.69;70.58;96632.25;10516791;28;1851;-71
2022/03/27 03:50:53;;;;;;;;;;;5.00;99.10;;;3.68;69.81;96630.59;10522679;28;1867;-70
2022/03/27 03:55:56;;;;;;;;;;;5.00;99.20;;;3.61;70.17;96640.44;10515211;28;1453;-70
2022/03/27 04:00:59;;;;;;;;;;;4.90;99.10;;;3.53;71.15;96632.69;10510601;28;1905;-71
2022/03/27 04:06:03;;;;;;;;;;;4.80;99.60;;;3.45;70.41;96631.09;10514976;28;1525;-71
2022/03/27 04:11:06;;;;;;;;;;;;;;;3.39;71.05;96623.13;10519356;28;2073;-70
2022/03/27 04:16:10;;;;;;;;;;;4.60;99.90;;;3.32;71.32;96630.28;10526574;28;1882;-71
2022/03/27 04:21:25;;;;;;;;;;;4.50;99.90;;;3.25;71.21;96623.16;10550416;28;1984;-71
2022/03/27 04:26:28;;;;;;;;;;;4.40;99.90;;;3.28;71.32;96623.75;10524067;28;1834;-69
2022/03/27 04:31:32;;;;;;;;;;;4.40;99.90;;;3.20;71.58;96624.78;10516154;28;1912;-71
2022/03/27 04:36:36;;;;;;;;;;;4.40;99.90;;;3.20;71.38;96617.63;10521342;28;1890;-71
2022/03/27 04:41:39;;;;;;;;;;;4.40;99.90;;;3.22;71.36;96626.19;10517877;28;1983;-71
2022/03/27 04:46:43;;;;;;;;;;;4.40;99.90;;;3.16;70.52;96627.03;10514455;28;1874;-71
2022/03/27 04:51:47;;;;;;;;;;;4.30;99.90;;;3.14;70.50;96626.44;10516101;28;1820;-71
2022/03/27 04:56:50;;;;;;;;;;;4.30;99.90;;;3.05;71.10;96622.31;10512875;28;1907;-70
2022/03/27 05:01:54;;;;;;;;;;;4.20;99.90;;;3.07;71.28;96628.28;10516387;28;1972;-70
2022/03/27 05:06:57;;;;;;;;;;;4.10;99.90;;;3.07;71.14;96630.94;10507917;28;1855;-70
2022/03/27 05:12:00;;;;;;;;;;;4.20;99.90;;;3.01;72.43;96639.72;10531710;28;1850;-71
2022/03/27 05:17:04;;;;;;;;;;;4.20;99.90;;;3.16;73.11;96635.00;10516964;28;1760;-70
2022/03/27 05:22:08;;;;;;;;;;;4.10;99.90;;;3.37;70.53;96636.63;10530829;28;1910;-70
2022/03/27 05:27:11;;;;;;;;;;;4.40;99.90;;;3.63;69.81;96637.59;10516446;28;1796;-71
2022/03/27 05:32:15;;;;;;;;;;;4.50;99.90;;;3.82;67.48;96638.53;10522038;28;1854;-70
2022/03/27 05:37:18;;;;;;;;;;;4.70;99.90;;;4.02;67.03;96639.31;10522691;28;1842;-71
2022/03/27 05:42:21;;;;;;;;;;;4.90;99.90;;;4.26;66.05;96649.22;10524239;28;1984;-70
2022/03/27 05:47:24;;;;;;;;;;;5.00;99.90;;;4.56;63.85;96651.31;10516524;28;2004;-70
2022/03/27 05:52:28;;;;;;;;;;;5.30;99.90;;;4.85;61.97;96652.56;10519958;28;1978;-70
2022/03/27 05:57:31;;;;;;;;;;;5.60;99.40;;;5.04;62.26;96643.59;10521553;28;1831;-71
2022/03/27 06:02:35;;;;;;;;;;;5.80;99.30;;;5.33;62.19;96639.44;10525351;28;1922;-70
2022/03/27 06:07:39;;;;;;;;;;;6.00;99.20;;;5.68;61.46;96636.25;10528203;28;1827;-69
2022/03/27 06:12:44;;;;;;;;;;;6.30;98.40;;;5.92;60.29;96632.75;10536180;28;1905;-70
2022/03/27 06:17:47;;;;;;;;;;;6.50;97.60;;;6.11;58.30;96646.06;10530216;28;2066;-69
2022/03/27 06:22:51;;;;;;;;;;;6.70;96.40;;;6.42;57.32;96640.50;10524185;28;2029;-71
2022/03/27 06:27:55;;;;;;;;;;;7.00;95.60;;;6.54;56.41;96645.09;10529036;28;1803;-70
2022/03/27 06:32:58;;;;;;;;;;;7.20;94.20;;;6.88;55.29;96649.75;10520591;28;2057;-70
2022/03/27 06:38:01;;;;;;;;;;;7.40;93.00;;;7.18;54.28;96652.34;10521489;28;1831;-71
2022/03/27 06:43:05;;;;;;;;;;;7.70;92.30;;;7.32;53.29;96652.97;10523992;28;1902;-71
2022/03/27 06:48:09;;;;;;;;;;;7.90;91.60;;;7.57;53.21;96656.25;10521761;28;1843;-70
2022/03/27 06:53:14;;;;;;;;;;;8.20;92.50;;;7.57;53.04;96656.25;10541006;28;1992;-71
2022/03/27 06:58:17;;;;;;;;;;;8.30;92.80;;;7.56;53.50;96659.94;10526980;28;2244;-70
2022/03/27 07:03:21;;;;;;;;;;;8.40;93.40;;;7.56;53.60;96659.94;10538022;28;1913;-70
2022/03/27 07:08:24;;;;;;;;;;;8.40;93.80;;;7.58;53.58;96673.91;10523768;28;1962;-70
2022/03/27 07:13:28;;;;;;;;;;;8.40;93.90;;;7.54;53.95;96666.56;10535217;28;1888;-71
2022/03/27 07:18:31;;;;;;;;;;;8.40;94.40;;;7.74;52.94;96660.88;10528216;28;1809;-71
2022/03/27 07:23:40;;;;;;;;;;;8.50;94.30;;;8.03;53.17;96659.91;10535824;28;1983;-70
2022/03/27 07:28:43;;;;;;;;;;;8.70;95.00;;;8.43;51.76;96656.47;10535141;28;1858;-70
2022/03/27 07:33:48;;;;;;;;;;;9.00;95.60;;;8.44;51.03;96659.97;10543947;28;1772;-71
2022/03/27 07:38:51;;;;;;;;;;;9.10;94.40;;;8.57;50.91;96660.50;10530587;28;1947;-71
2022/03/27 07:43:55;;;;;;;;;;;9.40;94.60;;;8.71;50.92;96665.56;10529278;28;1991;-72
2022/03/27 07:48:58;;;;;;;;;;;9.40;94.30;;;8.98;50.20;96666.63;10532570;28;1869;-72
2022/03/27 07:54:01;;;;;;;;;;;9.70;87.20;;;9.25;49.43;96666.00;10524878;28;1838;-71
2022/03/27 07:59:05;;;;;;;;;;;9.90;86.80;;;9.47;48.82;96658.81;10531805;28;1814;-71
2022/03/27 08:04:08;;;;;;;;;;;10.20;86.10;;;9.57;48.76;96658.19;10518941;28;1917;-71
2022/03/27 08:09:12;;;;;;;;;;;10.40;85.50;;;9.64;48.60;96654.25;10523284;28;1866;-71
2022/03/27 08:14:15;;;;;;;;;;;10.50;85.50;;;9.98;47.41;96651.50;10522848;28;1838;-72
2022/03/27 08:19:19;;;;;;;;;;;10.70;84.90;;;10.06;46.97;96655.66;10517264;28;1766;-73
2022/03/27 08:24:22;;;;;;;;;;;10.90;84.10;;;10.39;46.05;96649.38;10522138;28;1922;-71
2022/03/27 08:29:26;;;;;;;;;;;11.10;83.60;;;10.42;45.74;96655.06;10517332;28;2033;-71
2022/03/27 08:34:29;;;;;;;;;;;11.20;83.10;;;10.63;45.71;96649.94;10513425;28;1823;-71
2022/03/27 08:39:32;;;;;;;;;;;11.40;83.00;;;10.77;45.74;96649.28;10516319;28;1850;-71
2022/03/27 08:44:37;;;;;;;;;;;11.60;83.00;;;10.79;45.58;96655.22;10518399;28;1923;-71
2022/03/27 08:49:40;;;;;;;;;;;11.70;82.60;;;11.07;44.64;96650.66;10514623;28;1795;-73
2022/03/27 08:54:44;;;;;;;;;;;11.90;82.60;;;11.49;44.21;96644.53;10508659;28;1882;-72
2022/03/27 08:59:47;;;;;;;;;;;12.10;82.30;;;12.03;41.80;96637.13;10530674;22;3546;-71
2022/03/27 09:04:50;;;;;;;;;;;13.00;99.90;;;11.89;41.78;96642.13;10513436;28;1972;-71
2022/03/27 09:09:54;;;;;;;;;;;12.80;88.10;;;12.45;41.08;96645.09;10502160;28;1810;-71
2022/03/27 09:14:58;;;;;;;;;;;13.20;78.90;;;12.58;39.75;96648.38;10472505;28;1887;-70
2022/03/27 09:20:02;;;;;;;;;;;13.50;78.60;;;12.82;39.52;96644.16;10473055;28;1982;-70
2022/03/27 09:25:05;;;;;;;;;;;13.50;78.20;;;12.80;38.76;96642.81;10481537;28;1965;-72
2022/03/27 09:30:09;;;;;;;;;;;13.70;76.90;;;12.83;39.04;96640.38;10464962;28;1922;-71
2022/03/27 09:35:17;;;;;;;;;;;13.80;76.50;;;12.93;38.13;96644.97;10469077;28;1818;-71
2022/03/27 09:40:20;;;;;;;;;;;13.80;76.60;;;13.15;38.78;96647.44;10471265;28;1995;-71
2022/03/27 09:45:24;;;;;;;;;;;14.00;76.90;;;13.18;39.60;96642.31;10468259;28;1864;-71
2022/03/27 09:50:28;;;;;;;;;;;14.00;86.70;;;13.44;39.39;96631.56;10465461;28;1919;-72
2022/03/27 09:55:31;;;;;;;;;;;14.10;88.80;;;13.65;38.35;96633.16;10469387;28;2384;-72
2022/03/27 10:00:34;;;;;;;;;;;14.40;93.20;;;13.73;38.10;96632.59;10468613;28;2117;-72
2022/03/27 10:05:37;;;;;;;;;;;14.50;86.90;;;13.57;38.42;96639.13;10478844;28;1899;-70
2022/03/27 10:10:40;;;;;;;;;;;14.90;87.20;;;13.59;38.46;96631.53;10470766;28;1888;-72
2022/03/27 10:15:44;;;;;;;;;;;14.50;76.60;;;13.63;38.46;96626.41;10477315;28;1886;-72
2022/03/27 10:20:47;;;;;;;;;;;14.50;76.50;;;13.97;39.16;96627.41;10484324;28;1989;-72
2022/03/27 10:25:51;;;;;;;;;;;14.70;77.10;;;14.12;38.29;96623.84;10485504;28;1835;-71
2022/03/27 10:30:54;;;;;;;;;;;14.90;76.70;;;14.03;37.90;96625.53;10476702;28;1880;-72
2022/03/27 10:35:58;;;;;;;;;;;15.00;76.10;;;14.23;37.91;96619.25;10480736;28;2227;-70
2022/03/27 10:41:01;;;;;;;;;;;15.10;76.20;;;14.37;37.56;96598.63;10483769;28;1926;-72
2022/03/27 10:46:04;;;;;;;;;;;15.10;76.00;;;14.57;36.35;96604.00;10467891;28;1895;-69
2022/03/27 10:51:07;;;;;;;;;;;15.40;75.10;;;14.55;36.37;96589.91;10472572;28;1879;-71
2022/03/27 10:56:09;;;;;;;;;;;15.50;74.40;;;14.83;34.79;96591.13;10465877;28;1854;-71
2022/03/27 11:01:13;;;;;;;;;;;15.70;72.90;;;15.22;34.69;96581.38;10481564;28;1910;-70
2022/03/27 11:06:17;;;;;;;;;;;15.90;73.20;;;15.20;32.53;96587.03;10476214;28;1817;-71
2022/03/27 11:11:22;;;;;;;;;;;16.10;70.30;;;15.58;32.14;96579.13;10478432;28;1887;-72
2022/03/27 11:16:26;;;;;;;;;;;16.40;70.30;;;15.16;30.51;96579.78;10469190;28;1839;-71
2022/03/27 11:21:29;;;;;;;;;;;16.40;67.90;;;15.76;30.26;96566.78;10474178;28;1981;-71
2022/03/27 11:26:32;;;;;;;;;;;16.50;68.00;;;16.14;29.00;96565.00;10477898;28;1940;-70
2022/03/27 11:31:37;;;;;;;;;;;16.80;67.30;;;16.15;28.29;96559.28;10476013;28;1713;-71
2022/03/27 11:36:40;;;;;;;;;;;17.00;66.00;;;15.99;30.03;96560.59;10492242;28;1854;-71
2022/03/27 11:41:45;;;;;;;;;;;17.00;67.10;;;15.65;32.19;96556.06;10476607;28;1914;-71
2022/03/27 11:46:49;;;;;;;;;;;16.70;69.40;;;15.63;31.27;96554.72;10485255;28;1964;-71
2022/03/27 11:51:52;;;;;;;;;;;16.70;68.30;;;15.90;32.00;96552.28;10482099;28;2274;-71
2022/03/27 11:56:55;;;;;;;;;;;16.80;69.60;;;15.97;33.21;96537.53;10477364;28;1878;-70
2022/03/27 12:01:58;;;;;;;;;;;16.80;70.70;;;15.98;32.87;96531.84;10478628;28;1910;-71
2022/03/27 12:07:02;;;;;;;;;;;16.90;70.50;;;16.03;32.39;96539.09;10472593;28;1908;-71
2022/03/27 12:12:06;;;;;;;;;;;16.90;70.20;;;16.20;31.31;96534.00;10466634;28;1943;-71
2022/03/27 12:17:10;;;;;;;;;;;17.00;69.20;;;15.73;32.18;96526.72;10468055;28;1911;-70
2022/03/27 12:22:15;;;;;;;;;;;16.90;69.20;;;16.06;31.81;96517.66;10474048;28;1914;-72
2022/03/27 12:32:40;;;;;;;;;;;17.00;69.00;;;16.37;31.25;96506.41;10463914;28;1936;-70
2022/03/27 12:37:43;;;;;;;;;;;17.10;69.10;;;16.38;30.46;96516.16;10476215;28;1919;-71
2022/03/27 12:42:46;;;;;;;;;;;17.30;68.20;;;16.46;30.62;96507.34;10470937;28;1967;-71
2022/03/27 12:47:50;;;;;;;;;;;17.30;67.80;;;16.54;30.12;96512.13;10510578;28;1973;-70
2022/03/27 12:52:53;;;;;;;;;;;17.50;67.50;;;16.43;29.92;96513.38;10516357;28;2256;-71
2022/03/27 12:57:57;;;;;;;;;;;17.40;67.10;;;16.45;30.04;96508.44;10492291;28;2158;-71
2022/03/27 13:03:00;;;;;;;;;;;17.30;67.50;;;16.58;29.24;96505.00;10470276;28;1910;-71
2022/03/27 13:08:04;;;;;;;;;;;17.40;66.60;;;16.63;29.08;96502.22;10478495;28;1956;-71
2022/03/27 13:13:07;;;;;;;;;;;17.50;66.10;;;16.60;28.43;96502.78;10487504;28;1878;-70
2022/03/27 13:18:11;;;;;;;;;;;17.50;65.40;;;16.74;28.23;96494.78;10466997;28;2166;-71
2022/03/27 13:23:15;;;;;;;;;;;17.60;65.40;;;16.73;27.98;96491.25;10468048;28;1922;-71
2022/03/27 13:28:18;;;;;;;;;;;17.60;64.70;;;16.74;27.59;96492.06;10498531;28;2262;-70
2022/03/27 13:33:22;;;;;;;;;;;17.60;64.70;;;16.73;27.75;96485.00;10477864;28;2142;-71
2022/03/27 13:38:26;;;;;;;;;;;17.50;64.30;;;16.84;27.59;96474.78;10478678;28;1856;-71
2022/03/27 13:43:29;;;;;;;;;;;17.60;64.00;;;17.03;26.64;96467.41;10470022;28;1985;-71
2022/03/27 13:48:32;;;;;;;;;;;17.80;63.80;;;16.95;26.91;96484.38;10487370;28;1856;-71
2022/03/27 13:53:36;;;;;;;;;;;17.80;63.30;;;16.91;26.64;96475.22;10482719;28;1885;-71
2022/03/27 13:58:39;;;;;;;;;;;17.80;63.10;;;16.98;25.87;96467.47;10486280;28;1886;-71
2022/03/27 14:03:43;;;;;;;;;;;17.80;62.40;;;16.97;25.86;96463.97;10478214;28;1988;-72
2022/03/27 14:08:47;;;;;;;;;;;17.90;62.10;;;16.98;26.13;96454.69;10487593;28;1807;-71
2022/03/27 14:13:50;;;;;;;;;;;17.80;62.40;;;17.10;26.03;96451.53;10475823;28;2116;-71
2022/03/27 14:18:53;;;;;;;;;;;17.90;62.30;;;17.17;25.74;96457.38;10488704;28;1997;-70
2022/03/27 14:23:56;;;;;;;;;;;18.00;61.90;;;16.92;25.62;96444.22;10475916;28;1922;-73
2022/03/27 14:28:59;;;;;;;;;;;17.80;61.60;;;17.01;25.16;96450.59;10485194;28;2141;-71
2022/03/27 14:34:03;;;;;;;;;;;17.80;61.30;;;16.79;25.61;96451.22;10497860;28;1856;-72
2022/03/27 14:39:06;;;;;;;;;;;17.80;61.00;;;16.97;25.65;96452.28;10505702;28;2143;-72
2022/03/27 14:44:09;;;;;;;;;;;17.80;61.70;;;16.83;25.61;96443.31;10509844;28;1963;-71
2022/03/27 14:49:12;;;;;;;;;;;17.80;61.00;;;16.73;24.89;96439.66;10492816;28;1860;-71
2022/03/27 14:59:37;;;;;;;;;;;17.70;60.40;;;16.74;24.61;96432.34;10493185;22;1985;-73
2022/03/27 15:04:39;;;;;;;;;;;17.60;60.30;;;16.81;24.18;96438.19;10473714;28;1914;-73
2022/03/27 15:09:43;;;;;;;;;;;17.60;59.80;;;16.71;24.37;96438.34;10471324;28;1878;-73
2022/03/27 15:14:47;;;;;;;;;;;17.60;59.80;;;16.60;24.08;96431.41;10479173;28;1872;-71
2022/03/27 15:19:51;;;;;;;;;;;17.50;59.50;;;16.63;24.06;96420.78;10486167;28;1788;-74
2022/03/27 15:24:58;;;;;;;;;;;17.50;59.20;;;16.58;23.96;96411.91;10478379;28;1914;-73
2022/03/27 15:30:01;;;;;;;;;;;17.50;59.10;;;16.60;24.09;96407.00;10478210;28;2102;-73
2022/03/27 15:35:04;;;;;;;;;;;17.50;59.20;;;16.57;23.72;96407.59;10472567;28;2192;-73
2022/03/27 15:40:08;;;;;;;;;;;17.50;59.10;;;16.60;23.60;96405.09;10476632;28;2029;-72
2022/03/27 15:45:11;;;;;;;;;;;17.50;58.90;;;16.46;23.52;96405.03;10473376;28;2350;-74
2022/03/27 15:50:16;;;;;;;;;;;17.40;58.30;;;16.37;24.21;96406.00;10479333;28;1777;-72
2022/03/27 15:55:19;;;;;;;;;;;17.30;59.10;;;16.36;23.68;96409.84;10479365;28;1895;-74
2022/03/27 16:00:22;;;;;;;;;;;17.30;58.60;;;16.28;24.60;96407.75;10476173;28;1853;-75
2022/03/27 16:05:27;;;;;;;;;;;17.20;59.30;;;16.27;24.63;96404.25;10512289;28;1984;-71
2022/03/27 16:10:30;;;;;;;;;;;17.10;59.30;;;16.20;24.34;96401.91;10469420;28;1812;-73
2022/03/27 16:15:34;;;;;;;;;;;17.10;59.30;;;16.19;23.89;96410.34;10468343;28;1864;-73
2022/03/27 16:20:36;;;;;;;;;;;17.00;58.70;;;16.08;23.76;96404.25;10479401;28;1880;-72
2022/03/27 16:25:41;;;;;;;;;;;17.00;58.60;;;16.01;25.29;96401.09;10492396;28;1973;-72
2022/03/27 16:30:44;;;;;;;;;;;16.90;59.60;;;15.91;25.95;96409.41;10491520;28;1871;-75
2022/03/27 16:35:47;;;;;;;;;;;16.90;60.40;;;15.84;25.78;96404.34;10477465;28;1844;-73
2022/03/27 16:40:53;;;;;;;;;;;16.80;60.50;;;15.70;26.32;96408.03;10487049;28;2244;-73
2022/03/27 16:45:56;;;;;;;;;;;16.70;60.70;;;15.68;26.22;96406.41;10467494;28;1995;-72
2022/03/27 16:50:59;;;;;;;;;;;16.60;60.90;;;15.53;26.09;96401.16;10463853;28;1847;-72
2022/03/27 16:56:03;;;;;;;;;;;16.50;60.90;;;15.48;26.33;96406.66;10464620;28;1927;-75
2022/03/27 17:01:07;;;;;;;;;;;16.40;61.00;;;15.36;26.81;96403.53;10450019;28;1857;-73
2022/03/27 17:06:11;;;;;;;;;;;16.40;61.50;;;15.27;27.20;96416.91;10450816;28;2084;-72
2022/03/27 17:11:15;;;;;;;;;;;16.30;61.90;;;15.25;27.45;96415.56;10470690;28;2395;-72
2022/03/27 17:16:18;;;;;;;;;;;16.20;62.10;;;15.03;28.06;96411.47;10464880;28;1876;-75
2022/03/27 17:21:21;;;;;;;;;;;16.00;62.60;;;14.78;28.64;96414.41;10468159;28;1947;-72
2022/03/27 17:26:25;;;;;;;;;;;15.90;63.30;;;14.59;29.52;96423.22;10489098;28;1981;-72
2022/03/27 17:31:27;;;;;;;;;;;15.70;64.10;;;14.50;30.25;96424.91;10494678;28;1823;-72
2022/03/27 17:36:31;;;;;;;;;;;15.60;64.90;;;14.33;31.31;96429.91;10493669;28;2086;-73
2022/03/27 17:41:34;;;;;;;;;;;15.40;65.70;;;14.19;32.30;96428.91;10497938;28;1883;-73
2022/03/27 17:46:37;;;;;;;;;;;15.30;66.90;;;13.92;32.99;96435.53;10461768;28;1938;-74
2022/03/27 17:51:40;;;;;;;;;;;15.10;67.70;;;13.82;34.17;96442.91;10491369;28;1819;-74
2022/03/27 17:56:44;;;;;;;;;;;14.90;68.80;;;13.64;35.27;96437.03;10501784;28;1911;-73
2022/03/27 18:01:48;;;;;;;;;;;14.80;69.70;;;13.55;35.28;96444.09;10483794;28;1940;-74
2022/03/27 18:06:51;;;;;;;;;;;14.60;70.50;;;13.53;35.98;96444.34;10489964;28;2034;-71
2022/03/27 18:11:55;;;;;;;;;;;14.60;71.20;;;13.38;36.68;96452.53;10483804;28;1973;-71
2022/03/27 18:16:58;;;;;;;;;;;14.30;71.80;;;13.43;37.38;96452.50;10492398;28;1872;-73
2022/03/27 18:22:02;;;;;;;;;;;14.30;73.20;;;13.14;37.90;96464.97;10496085;28;1859;-75
2022/03/27 18:27:05;;;;;;;;;;;14.20;73.30;;;12.84;38.46;96463.91;10490750;28;1959;-72
2022/03/27 18:32:08;;;;;;;;;;;14.10;73.20;;;12.79;39.10;96471.19;10480038;28;1920;-71
2022/03/27 18:37:11;;;;;;;;;;;13.90;74.00;;;12.79;39.30;96472.03;10478816;28;1886;-71
2022/03/27 18:42:14;;;;;;;;;;;13.70;74.20;;;12.69;39.31;96478.22;10484777;28;1876;-73
2022/03/27 18:47:17;;;;;;;;;;;13.80;74.60;;;12.47;39.71;96480.38;10490512;28;1914;-74
2022/03/27 18:52:21;;;;;;;;;;;13.50;74.70;;;12.12;41.13;96489.19;10479841;28;2192;-72
2022/03/27 18:57:24;;;;;;;;;;;13.30;75.80;;;11.89;41.34;96485.88;10482798;28;1972;-74
2022/03/27 19:02:27;;;;;;;;;;;13.20;75.60;;;11.65;42.37;96490.09;10484227;28;1882;-72
2022/03/27 19:07:30;;;;;;;;;;;12.90;80.60;;;11.47;42.57;96491.34;10477498;28;1977;-72
2022/03/27 19:12:33;;;;;;;;;;;12.70;87.20;;;11.43;43.08;96487.53;10488061;28;1919;-73
2022/03/27 19:17:38;;;;;;;;;;;12.60;79.30;;;11.40;42.87;96493.47;10500506;28;1860;-71
2022/03/27 19:22:41;;;;;;;;;;;12.50;77.70;;;11.24;43.88;96495.22;10483611;28;1898;-73
2022/03/27 19:27:45;;;;;;;;;;;12.40;78.00;;;11.19;43.61;96497.88;10483744;28;1855;-73
2022/03/27 19:32:48;;;;;;;;;;;12.30;78.40;;;11.44;42.70;96488.34;10482128;28;1837;-74
2022/03/27 19:37:51;;;;;;;;;;;12.30;78.40;;;11.45;42.97;96489.97;10486500;28;2250;-74
2022/03/27 19:42:54;;;;;;;;;;;12.30;78.30;;;11.17;43.77;96510.00;10487082;28;1922;-70
2022/03/27 19:47:58;;;;;;;;;;;12.30;78.50;;;10.89;44.91;96509.25;10480628;28;1843;-71
2022/03/27 19:53:01;;;;;;;;;;;12.20;79.00;;;10.64;45.78;96506.38;10482607;28;1974;-71
2022/03/27 19:58:04;;;;;;;;;;;12.00;79.40;;;10.50;46.35;96500.59;10479768;28;1842;-71
2022/03/27 20:03:07;;;;;;;;;;;11.80;80.30;;;10.56;45.59;96504.97;10481281;28;1975;-71
2022/03/27 20:08:11;;;;;;;;;;;11.90;80.30;;;10.39;46.95;96515.00;10491876;28;1860;-74
2022/03/27 20:13:16;;;;;;;;;;;11.80;80.80;;;10.23;47.95;96504.09;10484116;28;1871;-72
2022/03/27 20:18:19;;;;;;;;;;;11.70;81.30;;;10.15;48.09;96509.09;10496522;28;1950;-72
2022/03/27 20:23:22;;;;;;;;;;;11.40;81.70;;;10.00;48.63;96509.72;10468946;28;1930;-71
2022/03/27 20:28:25;;;;;;;;;;;11.30;82.30;;;9.94;49.01;96508.88;10474764;28;1806;-70
2022/03/27 20:33:28;;;;;;;;;;;11.10;82.90;;;9.91;49.38;96516.59;10477377;28;1915;-74
2022/03/27 20:38:31;;;;;;;;;;;11.00;86.80;;;9.84;48.90;96518.66;10484460;28;1901;-71
2022/03/27 20:43:35;;;;;;;;;;;11.00;90.10;;;9.69;50.50;96514.75;10482144;28;1997;-75
2022/03/27 20:48:38;;;;;;;;;;;10.90;87.70;;;9.57;50.92;96514.03;10472264;28;1886;-73
2022/03/27 20:53:41;;;;;;;;;;;10.80;86.70;;;9.45;51.20;96521.41;10467765;28;2031;-73
2022/03/27 20:58:44;;;;;;;;;;;10.70;84.50;;;9.44;51.08;96514.41;10473795;28;2086;-72
2022/03/27 21:03:47;;;;;;;;;;;10.70;84.40;;;9.41;51.39;96522.94;10464309;28;1918;-72
2022/03/27 21:08:50;;;;;;;;;;;10.60;84.60;;;9.30;51.14;96513.97;10486327;28;1887;-72
2022/03/27 21:13:54;;;;;;;;;;;10.60;84.90;;;9.27;51.82;96519.81;10467751;28;1962;-72
2022/03/27 21:18:57;;;;;;;;;;;10.50;85.40;;;9.13;52.01;96513.16;10523848;22;2219;-70
2022/03/27 21:24:00;;;;;;;;;;;10.40;85.50;;;9.06;52.39;96518.69;10510922;28;1971;-69
2022/03/27 21:29:03;;;;;;;;;;;10.30;85.80;;;9.02;53.57;96522.91;10477715;28;1805;-70
2022/03/27 21:34:06;;;;;;;;;;;10.20;86.60;;;8.92;54.67;96517.41;10471748;28;1310;-69
2022/03/27 21:39:18;;;;;;;;;;;10.10;87.40;;;8.87;54.04;96522.69;10468663;28;1741;-70
2022/03/27 21:44:23;;;;;;;;;;;10.10;86.90;;;8.76;54.44;96520.91;10470645;28;1950;-69
2022/03/27 21:49:26;;;;;;;;;;;10.00;87.50;;;8.69;55.65;96520.25;10499525;28;1953;-70
2022/03/27 21:54:29;;;;;;;;;;;9.90;88.00;;;8.66;55.15;96522.38;10500111;28;1882;-69
2022/03/27 21:59:33;;;;;;;;;;;9.90;88.30;;;8.49;56.57;96524.22;10496725;28;1833;-70
2022/03/27 22:04:37;;;;;;;;;;;9.80;88.90;;;8.40;57.06;96514.97;10496354;28;1918;-70
2022/03/27 22:09:41;;;;;;;;;;;9.70;89.40;;;8.35;56.96;96522.88;10485855;28;1922;-70
2022/03/27 22:14:44;;;;;;;;;;;9.60;89.90;;;8.31;57.37;96513.69;10486165;28;1871;-70
2022/03/27 22:19:47;;;;;;;;;;;9.60;90.10;;;8.24;57.71;96511.16;10507399;28;1872;-71
2022/03/27 22:24:53;;;;;;;;;;;9.50;90.10;;;8.13;58.04;96509.34;10519448;28;1886;-71
2022/03/27 22:29:57;;;;;;;;;;;9.30;90.10;;;8.00;58.83;96505.09;10522734;28;2023;-70
2022/03/27 22:35:01;;;;;;;;;;;9.30;90.70;;;7.91;59.22;96506.53;10521729;28;1854;-70
2022/03/27 22:40:04;;;;;;;;;;;9.10;91.30;;;7.85;59.49;96496.78;10513684;28;1801;-70
2022/03/27 22:45:07;;;;;;;;;;;9.10;91.50;;;7.76;59.54;96490.16;10521129;28;1918;-70
2022/03/27 22:50:10;;;;;;;;;;;9.00;91.80;;;7.64;60.90;96495.56;10533240;28;1872;-71
2022/03/27 22:55:13;;;;;;;;;;;9.00;92.50;;;7.59;61.55;96488.25;10519907;28;1701;-70
2022/03/27 23:00:17;;;;;;;;;;;8.80;93.20;;;7.54;61.84;96480.09;10505114;28;1837;-69
2022/03/27 23:05:20;;;;;;;;;;;8.90;93.50;;;7.45;60.90;96480.72;10476600;28;1910;-69
2022/03/27 23:10:23;;;;;;;;;;;8.70;92.80;;;7.38;60.84;96477.34;10482618;28;2018;-71
2022/03/27 23:15:27;;;;;;;;;;;8.60;92.70;;;7.35;60.75;96478.66;10477950;28;1846;-69
2022/03/27 23:20:33;;;;;;;;;;;8.50;92.70;;;7.26;61.46;96486.22;10472294;28;2157;-69
2022/03/27 23:25:36;;;;;;;;;;;8.50;93.00;;;7.19;63.04;96476.69;10478586;28;1913;-69
2022/03/27 23:30:39;;;;;;;;;;;8.80;94.10;;;7.09;63.51;96477.28;10474459;28;1833;-70
2022/03/27 23:35:42;;;;;;;;;;;8.30;94.40;;;6.99;63.60;96469.03;10479092;28;1789;-70
2022/03/27 23:40:45;;;;;;;;;;;8.20;94.70;;;6.93;64.08;96476.13;10476542;28;1940;-71
2022/03/27 23:45:48;;;;;;;;;;;8.20;95.20;;;6.91;64.87;96474.75;10480708;28;1914;-68